Time;durP1;ratioP1;P1;durP2;ratioP2;P2;SDS_P1;SDS_P2;PMS_P1;PMS_P2;Temp;Humidity;BMP_temperature;BMP_pressure;BME280_temperature;BME280_humidity;BME280_pressure;Samples;Min_cycle;Max_cycle;Signal;HPM_P1;HPM_P2
2022/08/11 00:00:19;;;;;;;;;;;16.10;70.90;;;;;;4932566;29;19915;-82
2022/08/11 00:02:47;;;;;;;;;;;16.10;71.50;;;;;;4931670;29;19937;-82
2022/08/11 00:05:14;;;;;;;;;;;16.00;71.20;;;;;;4950039;28;19914;-83
2022/08/11 00:07:42;;;;;;;;;;;16.00;71.10;;;;;;4950835;28;19911;-83
2022/08/11 00:10:09;;;;;;;;;;;15.90;72.50;;;;;;4918919;29;19965;-84
2022/08/11 00:12:35;;;;;;;;;;;15.90;71.40;;;;;;4933840;29;19917;-83
2022/08/11 00:15:01;;;;;;;;;;;15.90;72.10;;;;;;4930609;29;19918;-85
2022/08/11 00:17:29;;;;;;;;;;;15.80;72.90;;;;;;4923464;29;19907;-84
2022/08/11 00:19:59;;;;;;;;;;;15.80;72.60;;;;;;4922885;29;19910;-85
2022/08/11 00:22:27;;;;;;;;;;;15.80;72.90;;;;;;4932728;29;19911;-84
2022/08/11 00:24:53;;;;;;;;;;;15.80;72.50;;;;;;4915559;29;19919;-85
2022/08/11 00:27:18;;;;;;;;;;;15.70;72.80;;;;;;4932957;29;19927;-84
2022/08/11 00:29:53;;;;;;;;;;;15.70;73.30;;;;;;4931440;29;19919;-84
2022/08/11 00:32:19;;;;;;;;;;;15.70;73.20;;;;;;4929996;29;19950;-84
2022/08/11 00:34:46;;;;;;;;;;;15.60;73.80;;;;;;4913436;29;19968;-82
2022/08/11 00:37:17;;;;;;;;;;;15.60;74.20;;;;;;4931220;29;19998;-84
2022/08/11 00:39:44;;;;;;;;;;;15.60;74.20;;;;;;4915557;29;19922;-85
2022/08/11 00:42:10;;;;;;;;;;;15.50;73.70;;;;;;4946852;29;19914;-83
2022/08/11 00:44:43;;;;;;;;;;;15.50;73.80;;;;;;4933969;29;20292;-85
2022/08/11 00:47:12;;;;;;;;;;;15.50;74.00;;;;;;4949740;28;19923;-84
2022/08/11 00:50:04;;;;;;;;;;;15.40;74.00;;;;;;4946202;29;20602;-84
2022/08/11 00:52:39;;;;;;;;;;;15.50;74.40;;;;;;4940449;29;19911;-84
2022/08/11 00:55:23;;;;;;;;;;;15.40;74.00;;;;;;4927468;29;19942;-82
2022/08/11 00:58:07;;;;;;;;;;;15.40;74.20;;;;;;4934422;29;19918;-85
2022/08/11 01:00:48;;;;;;;;;;;15.40;74.20;;;;;;4951761;28;19925;-84
2022/08/11 01:03:40;;;;;;;;;;;15.40;75.00;;;;;;4916601;29;20371;-84
2022/08/11 01:06:06;;;;;;;;;;;15.40;75.10;;;;;;4939688;29;19911;-83
2022/08/11 01:08:51;;;;;;;;;;;15.40;75.40;;;;;;4948561;28;20013;-84
2022/08/11 01:11:34;;;;;;;;;;;15.30;74.70;;;;;;4938409;29;19965;-83
2022/08/11 01:14:18;;;;;;;;;;;15.30;74.40;;;;;;4930979;29;19911;-84
2022/08/11 01:16:47;;;;;;;;;;;15.30;74.60;;;;;;4943408;29;19918;-84
2022/08/11 01:19:28;;;;;;;;;;;15.20;75.00;;;;;;4946477;28;19954;-84
2022/08/11 01:22:12;;;;;;;;;;;15.20;75.10;;;;;;4944133;29;19958;-84
2022/08/11 01:24:44;;;;;;;;;;;15.20;75.30;;;;;;4945976;29;20276;-84
2022/08/11 01:27:30;;;;;;;;;;;15.20;75.30;;;;;;4947838;29;19911;-84
2022/08/11 01:30:11;;;;;;;;;;;15.10;75.80;;;;;;4932140;29;19966;-84
2022/08/11 01:32:56;;;;;;;;;;;15.10;75.90;;;;;;4899040;29;19911;-85
2022/08/11 01:35:24;;;;;;;;;;;15.00;77.00;;;;;;4915749;29;19915;-82
2022/08/11 01:38:10;;;;;;;;;;;15.00;76.30;;;;;;4934965;29;20415;-83
2022/08/11 01:40:45;;;;;;;;;;;15.00;77.20;;;;;;4936096;29;19921;-84
2022/08/11 01:46:17;;;;;;;;;;;14.90;77.00;;;;;;4938412;29;19911;-84
2022/08/11 01:48:43;;;;;;;;;;;14.90;76.80;;;;;;4918138;29;19985;-85
2022/08/11 01:51:23;;;;;;;;;;;14.90;77.20;;;;;;4927225;29;19942;-84
2022/08/11 01:54:01;;;;;;;;;;;14.80;77.60;;;;;;4938515;29;19969;-84
2022/08/11 01:56:42;;;;;;;;;;;14.80;77.70;;;;;;4933417;29;19987;-85
2022/08/11 01:59:11;;;;;;;;;;;14.80;78.80;;;;;;4930680;29;19950;-82
2022/08/11 02:01:43;;;;;;;;;;;14.80;77.80;;;;;;4940742;29;19918;-84
2022/08/11 02:04:28;;;;;;;;;;;14.70;77.70;;;;;;4916314;29;19911;-84
2022/08/11 02:07:01;;;;;;;;;;;14.70;77.90;;;;;;4928034;29;20516;-83
2022/08/11 02:09:45;;;;;;;;;;;14.70;77.70;;;;;;4932182;29;20398;-84
2022/08/11 02:12:21;;;;;;;;;;;14.70;78.70;;;;;;4945757;29;19911;-85
2022/08/11 02:15:22;;;;;;;;;;;14.70;78.70;;;;;;4945413;28;19922;-84
2022/08/11 02:18:06;;;;;;;;;;;14.70;78.50;;;;;;4896826;29;20292;-85
2022/08/11 02:23:42;;;;;;;;;;;14.70;79.40;;;;;;4949300;28;19918;-83
2022/08/11 02:26:14;;;;;;;;;;;14.60;79.10;;;;;;4932414;29;20411;-84
2022/08/11 02:28:48;;;;;;;;;;;14.60;78.70;;;;;;4930579;29;20411;-85
2022/08/11 02:34:29;;;;;;;;;;;14.60;79.00;;;;;;4927882;29;20056;-85
2022/08/11 02:37:17;;;;;;;;;;;14.60;78.50;;;;;;4948099;28;20495;-84
2022/08/11 02:39:54;;;;;;;;;;;14.60;79.10;;;;;;4930910;29;19970;-85
2022/08/11 02:42:24;;;;;;;;;;;14.60;79.10;;;;;;4932188;29;19910;-83
2022/08/11 02:45:10;;;;;;;;;;;14.60;79.80;;;;;;4916242;29;19910;-83
2022/08/11 02:47:38;;;;;;;;;;;14.60;79.80;;;;;;4945332;29;20339;-84
2022/08/11 02:50:19;;;;;;;;;;;14.60;80.30;;;;;;4913920;29;20553;-84
2022/08/11 02:52:59;;;;;;;;;;;14.50;79.90;;;;;;4932675;29;20487;-85
2022/08/11 02:55:44;;;;;;;;;;;14.50;79.50;;;;;;4916495;29;19915;-84
2022/08/11 02:58:34;;;;;;;;;;;14.50;79.60;;;;;;4930388;29;19957;-84
2022/08/11 03:01:10;;;;;;;;;;;14.50;79.50;;;;;;4911549;29;19911;-82
2022/08/11 03:03:56;;;;;;;;;;;14.50;79.20;;;;;;4930934;29;19923;-82
2022/08/11 03:06:31;;;;;;;;;;;14.50;80.10;;;;;;4938681;29;19926;-83
2022/08/11 03:09:06;;;;;;;;;;;14.40;82.40;;;;;;4932762;29;19911;-85
2022/08/11 03:17:35;;;;;;;;;;;14.30;81.30;;;;;;4948243;29;19918;-84
2022/08/11 03:20:20;;;;;;;;;;;14.30;80.70;;;;;;4913853;29;19915;-83
2022/08/11 03:22:49;;;;;;;;;;;14.30;81.30;;;;;;4927332;29;20320;-85
2022/08/11 03:25:14;;;;;;;;;;;14.30;82.00;;;;;;4929749;29;20427;-82
2022/08/11 03:27:47;;;;;;;;;;;14.20;82.30;;;;;;4932064;29;19911;-83
2022/08/11 03:30:33;;;;;;;;;;;14.20;82.10;;;;;;4913212;29;19915;-82
2022/08/11 03:36:06;;;;;;;;;;;14.10;83.10;;;;;;4951110;29;20294;-83
2022/08/11 03:38:55;;;;;;;;;;;14.10;83.00;;;;;;4916731;29;19911;-84
2022/08/11 03:41:43;;;;;;;;;;;14.10;83.40;;;;;;4917150;29;19921;-83
2022/08/11 03:44:15;;;;;;;;;;;14.00;83.10;;;;;;4948401;29;20029;-83
2022/08/11 03:47:07;;;;;;;;;;;14.00;84.10;;;;;;4944613;29;20465;-83
2022/08/11 03:49:53;;;;;;;;;;;14.00;84.20;;;;;;4934950;28;20725;-84
2022/08/11 03:52:22;;;;;;;;;;;13.90;83.90;;;;;;4943310;29;19910;-82
2022/08/11 03:55:07;;;;;;;;;;;13.90;84.30;;;;;;4946001;28;20401;-83
2022/08/11 03:57:46;;;;;;;;;;;13.90;84.60;;;;;;4936311;29;19914;-84
2022/08/11 04:00:30;;;;;;;;;;;13.90;85.00;;;;;;4919442;29;19910;-83
2022/08/11 04:03:02;;;;;;;;;;;14.00;86.70;;;;;;4934519;29;19917;-83
2022/08/11 04:05:33;;;;;;;;;;;13.90;85.40;;;;;;4946547;29;19911;-84
2022/08/11 04:08:18;;;;;;;;;;;13.90;85.70;;;;;;4950867;28;20298;-83
2022/08/11 04:11:10;;;;;;;;;;;13.90;85.60;;;;;;4948424;29;20283;-82
2022/08/11 04:15:58;;;;;;;;;;;13.90;84.60;;;;;;4927212;29;19939;-82
2022/08/11 04:16:45;;;;;;;;;;;13.90;84.40;;;;;;4948518;29;19914;-85
2022/08/11 04:19:29;;;;;;;;;;;13.90;84.90;;;;;;4918722;29;19998;-83
2022/08/11 04:22:01;;;;;;;;;;;13.90;85.00;;;;;;4947475;28;19915;-84
2022/08/11 04:24:45;;;;;;;;;;;13.90;84.80;;;;;;4931246;29;20399;-83
2022/08/11 04:27:24;;;;;;;;;;;13.90;85.30;;;;;;4947491;29;20287;-83
2022/08/11 04:30:08;;;;;;;;;;;13.90;85.70;;;;;;4918892;29;19911;-82
2022/08/11 04:32:33;;;;;;;;;;;13.90;85.90;;;;;;4929554;29;19942;-85
2022/08/11 04:35:18;;;;;;;;;;;13.90;85.90;;;;;;4927033;29;19941;-84
2022/08/11 04:38:05;;;;;;;;;;;13.90;86.60;;;;;;4908920;29;19911;-84
2022/08/11 04:40:45;;;;;;;;;;;13.80;86.00;;;;;;4941051;29;19919;-84
2022/08/11 04:43:30;;;;;;;;;;;13.80;87.10;;;;;;4932989;29;20023;-84
2022/08/11 04:46:08;;;;;;;;;;;13.80;87.10;;;;;;4930708;29;19911;-84
2022/08/11 05:05:29;;;;;;;;;;;14.00;88.60;;;;;;4931975;29;19915;-83
2022/08/11 05:07:12;;;;;;;;;;;14.00;89.10;;;;;;4930849;29;20022;-85
2022/08/11 05:09:45;;;;;;;;;;;14.10;89.20;;;;;;4934794;29;19915;-83
2022/08/11 05:12:34;;;;;;;;;;;14.20;89.30;;;;;;4933890;29;20009;-83
2022/08/11 05:34:49;;;;;;;;;;;14.90;88.80;;;;;;4934098;28;19953;-84
2022/08/11 05:37:19;;;;;;;;;;;15.00;88.50;;;;;;4916317;29;19931;-84
2022/08/11 05:56:32;;;;;;;;;;;18.20;78.80;;;;;;4942279;29;20420;-83
2022/08/11 05:58:58;;;;;;;;;;;18.70;76.20;;;;;;4917870;29;20319;-86
2022/08/11 06:01:25;;;;;;;;;;;19.20;73.00;;;;;;4945511;28;20338;-85
2022/08/11 06:06:39;;;;;;;;;;;20.00;68.70;;;;;;4912827;29;19914;-84
2022/08/11 06:09:06;;;;;;;;;;;20.50;67.20;;;;;;4914205;29;19918;-85
2022/08/11 06:11:37;;;;;;;;;;;20.90;65.60;;;;;;4924183;29;19911;-83
2022/08/11 06:14:04;;;;;;;;;;;21.30;63.90;;;;;;4933488;29;19921;-85
2022/08/11 06:16:29;;;;;;;;;;;21.60;62.80;;;;;;4916046;29;19914;-85
2022/08/11 06:18:56;;;;;;;;;;;22.00;61.40;;;;;;4914352;29;19915;-85
2022/08/11 06:21:22;;;;;;;;;;;22.30;60.50;;;;;;4922671;29;19922;-83
2022/08/11 06:23:48;;;;;;;;;;;22.70;59.30;;;;;;4948266;28;19922;-82
2022/08/11 06:26:14;;;;;;;;;;;23.00;58.20;;;;;;4929719;29;19915;-84
2022/08/11 06:28:43;;;;;;;;;;;23.40;57.70;;;;;;4929453;29;19922;-86
2022/08/11 06:31:12;;;;;;;;;;;23.80;56.70;;;;;;4931540;29;19918;-84
2022/08/11 06:33:52;;;;;;;;;;;24.10;56.00;;;;;;4918930;29;19911;-86
2022/08/11 06:36:40;;;;;;;;;;;24.30;56.00;;;;;;4946803;28;19950;-85
2022/08/11 06:39:26;;;;;;;;;;;24.70;55.40;;;;;;4912794;29;19959;-85
2022/08/11 06:41:58;;;;;;;;;;;25.10;54.10;;;;;;4916777;29;19922;-85
2022/08/11 06:44:57;;;;;;;;;;;25.50;53.30;;;;;;4912936;29;20348;-85
2022/08/11 06:47:23;;;;;;;;;;;25.70;52.90;;;;;;4932013;29;20023;-85
2022/08/11 06:52:34;;;;;;;;;;;26.10;52.20;;;;;;4929332;29;19919;-85
2022/08/11 06:55:05;;;;;;;;;;;26.40;51.90;;;;;;4928448;29;19937;-85
2022/08/11 07:00:29;;;;;;;;;;;27.10;50.70;;;;;;4932696;29;20298;-85
2022/08/11 07:03:00;;;;;;;;;;;27.40;49.50;;;;;;4914048;29;19926;-85
2022/08/11 07:05:42;;;;;;;;;;;27.80;48.70;;;;;;4924811;29;19911;-84
2022/08/11 07:16:46;;;;;;;;;;;28.60;46.70;;;;;;4936851;29;20387;-84
2022/08/11 07:30:25;;;;;;;;;;;29.30;46.00;;;;;;4947292;28;20327;-86
2022/08/11 07:32:53;;;;;;;;;;;29.50;44.70;;;;;;4926958;29;19911;-85
2022/08/11 07:35:23;;;;;;;;;;;29.60;43.90;;;;;;4915693;29;20327;-86
2022/08/11 07:37:57;;;;;;;;;;;29.50;44.20;;;;;;4915006;29;20464;-86
2022/08/11 07:40:23;;;;;;;;;;;29.40;44.70;;;;;;4939321;29;20001;-86
2022/08/11 07:42:49;;;;;;;;;;;29.50;45.00;;;;;;4912130;29;19914;-86
2022/08/11 07:53:29;;;;;;;;;;;29.10;43.80;;;;;;4946688;28;19911;-85
2022/08/11 07:55:55;;;;;;;;;;;29.10;45.00;;;;;;4929423;29;19926;-85
2022/08/11 08:17:56;;;;;;;;;;;28.50;41.50;;;;;;4925786;29;19911;-87
2022/08/11 08:20:27;;;;;;;;;;;28.00;41.80;;;;;;4934366;29;19976;-87
2022/08/11 08:22:57;;;;;;;;;;;27.50;41.00;;;;;;4930704;29;19919;-86
2022/08/11 08:25:27;;;;;;;;;;;27.20;42.00;;;;;;4916502;29;19962;-86
2022/08/11 08:27:55;;;;;;;;;;;27.00;43.30;;;;;;4917974;29;20402;-86
2022/08/11 08:33:06;;;;;;;;;;;26.80;42.60;;;;;;4949836;28;19918;-85
2022/08/11 08:35:32;;;;;;;;;;;26.60;42.50;;;;;;4916591;29;19925;-85
2022/08/11 08:37:59;;;;;;;;;;;26.50;43.50;;;;;;4918192;29;19910;-86
2022/08/11 08:40:25;;;;;;;;;;;26.30;42.50;;;;;;4933793;29;19911;-84
2022/08/11 08:42:56;;;;;;;;;;;26.20;43.10;;;;;;4913967;29;20388;-84
2022/08/11 08:45:22;;;;;;;;;;;26.10;44.40;;;;;;4905259;29;19954;-86
2022/08/11 08:47:54;;;;;;;;;;;26.10;44.30;;;;;;4915259;29;19922;-85
2022/08/11 08:50:22;;;;;;;;;;;26.10;44.50;;;;;;4915315;29;19918;-87
2022/08/11 08:52:58;;;;;;;;;;;26.00;44.10;;;;;;4920654;29;19965;-86
2022/08/11 08:55:26;;;;;;;;;;;26.00;44.20;;;;;;4929630;29;20283;-86
2022/08/11 08:57:53;;;;;;;;;;;26.00;44.00;;;;;;4917682;29;19917;-87
2022/08/11 09:00:20;;;;;;;;;;;26.00;42.90;;;;;;4917821;29;19911;-86
2022/08/11 09:02:46;;;;;;;;;;;25.90;43.60;;;;;;4941404;28;19911;-85
2022/08/11 09:05:15;;;;;;;;;;;25.80;44.80;;;;;;4924598;29;19932;-84
2022/08/11 09:07:41;;;;;;;;;;;25.80;43.40;;;;;;4914982;29;20013;-85
2022/08/11 09:10:09;;;;;;;;;;;25.80;43.60;;;;;;4922471;29;19939;-86
2022/08/11 09:12:37;;;;;;;;;;;25.80;44.80;;;;;;4948802;28;20346;-84
2022/08/11 09:15:03;;;;;;;;;;;25.80;43.20;;;;;;4916526;29;19911;-86
2022/08/11 09:17:38;;;;;;;;;;;25.70;44.90;;;;;;4931913;29;19930;-87
2022/08/11 09:20:16;;;;;;;;;;;25.70;42.40;;;;;;4917559;29;19915;-86
2022/08/11 09:28:13;;;;;;;;;;;25.60;44.10;;;;;;4929098;29;20336;-85
2022/08/11 09:30:43;;;;;;;;;;;25.70;44.10;;;;;;4918005;29;19906;-85
2022/08/11 09:33:10;;;;;;;;;;;25.60;42.70;;;;;;4912962;29;19911;-85
2022/08/11 09:35:37;;;;;;;;;;;25.60;44.40;;;;;;4917320;29;19922;-86
2022/08/11 09:40:49;;;;;;;;;;;25.60;42.90;;;;;;4920503;29;19938;-85
2022/08/11 09:46:01;;;;;;;;;;;25.70;44.00;;;;;;4944764;29;19990;-85
2022/08/11 09:48:29;;;;;;;;;;;25.60;44.00;;;;;;4914533;29;19911;-82
2022/08/11 09:50:58;;;;;;;;;;;25.60;43.70;;;;;;4936463;29;19938;-85
2022/08/11 09:53:26;;;;;;;;;;;25.60;43.50;;;;;;4917493;29;19966;-85
2022/08/11 09:55:51;;;;;;;;;;;25.60;44.70;;;;;;4928589;29;19919;-85
2022/08/11 09:58:18;;;;;;;;;;;25.60;44.20;;;;;;4924716;29;19965;-84
2022/08/11 10:00:46;;;;;;;;;;;25.70;44.00;;;;;;4922051;29;19994;-84
2022/08/11 10:03:14;;;;;;;;;;;25.80;44.90;;;;;;4931871;29;19914;-84
2022/08/11 10:08:27;;;;;;;;;;;25.80;43.60;;;;;;4915657;29;19915;-88
2022/08/11 10:10:53;;;;;;;;;;;25.80;43.40;;;;;;4908682;29;19997;-84
2022/08/11 10:13:24;;;;;;;;;;;25.70;42.30;;;;;;4916055;29;20542;-87
2022/08/11 10:15:53;;;;;;;;;;;25.70;43.30;;;;;;4917790;29;20415;-85
2022/08/11 10:18:41;;;;;;;;;;;25.70;44.60;;;;;;4913050;29;20023;-85
2022/08/11 10:21:14;;;;;;;;;;;25.70;43.70;;;;;;4919991;29;20091;-85
2022/08/11 10:26:57;;;;;;;;;;;25.70;44.30;;;;;;4924872;29;20677;-85
2022/08/11 10:35:12;;;;;;;;;;;25.90;44.10;;;;;;4940800;29;19934;-85
2022/08/11 10:37:38;;;;;;;;;;;26.00;44.60;;;;;;4941354;29;19966;-85
2022/08/11 10:40:05;;;;;;;;;;;26.00;43.90;;;;;;4903836;29;19921;-84
2022/08/11 10:48:01;;;;;;;;;;;26.10;42.90;;;;;;4928492;29;19974;-85
2022/08/11 10:58:49;;;;;;;;;;;26.30;44.40;;;;;;4929411;29;19926;-84
2022/08/11 11:01:21;;;;;;;;;;;26.40;41.50;;;;;;4930463;29;20632;-86
2022/08/11 11:03:51;;;;;;;;;;;26.30;42.20;;;;;;4931018;29;19911;-84
2022/08/11 11:06:24;;;;;;;;;;;26.40;42.30;;;;;;4920840;29;19934;-88
2022/08/11 11:08:52;;;;;;;;;;;26.40;41.50;;;;;;4941632;28;20009;-87
2022/08/11 11:11:19;;;;;;;;;;;26.40;41.30;;;;;;4930154;29;19917;-86
2022/08/11 11:19:18;;;;;;;;;;;26.60;43.60;;;;;;4928996;29;19962;-86
2022/08/11 11:21:44;;;;;;;;;;;26.50;42.50;;;;;;4927339;29;20358;-84
2022/08/11 11:24:32;;;;;;;;;;;26.50;43.60;;;;;;4926476;29;19911;-85
2022/08/11 11:27:01;;;;;;;;;;;26.50;43.10;;;;;;4926927;29;19939;-86
2022/08/11 11:29:39;;;;;;;;;;;26.50;42.90;;;;;;4931161;29;19919;-85
2022/08/11 11:32:14;;;;;;;;;;;26.50;42.10;;;;;;4926030;29;19911;-85
2022/08/11 11:34:58;;;;;;;;;;;26.50;42.30;;;;;;4914268;29;19952;-85
2022/08/11 11:37:24;;;;;;;;;;;26.60;43.60;;;;;;4926643;29;19962;-85
2022/08/11 11:39:51;;;;;;;;;;;26.70;42.40;;;;;;4924774;29;19953;-84
2022/08/11 11:42:17;;;;;;;;;;;26.70;43.20;;;;;;4945207;28;19910;-85
2022/08/11 11:44:43;;;;;;;;;;;26.80;42.20;;;;;;4926157;29;19921;-85
2022/08/11 11:47:11;;;;;;;;;;;26.80;42.00;;;;;;4920970;29;19910;-86
2022/08/11 11:49:42;;;;;;;;;;;26.90;43.60;;;;;;4914772;29;19950;-86
2022/08/11 11:52:08;;;;;;;;;;;26.90;41.50;;;;;;4917319;29;19926;-84
2022/08/11 11:54:35;;;;;;;;;;;26.90;43.40;;;;;;4933855;29;20005;-85
2022/08/11 12:02:36;;;;;;;;;;;27.10;41.90;;;;;;4945336;28;19915;-84
2022/08/11 12:05:01;;;;;;;;;;;27.20;41.60;;;;;;4930749;29;19910;-83
2022/08/11 12:10:13;;;;;;;;;;;27.40;41.10;;;;;;4935496;29;20416;-86
2022/08/11 12:15:23;;;;;;;;;;;27.70;38.90;;;;;;4933898;29;19919;-86
2022/08/11 12:17:49;;;;;;;;;;;27.80;40.10;;;;;;4933925;29;20051;-85
2022/08/11 12:20:19;;;;;;;;;;;27.80;38.90;;;;;;4950177;28;20395;-85
2022/08/11 12:28:15;;;;;;;;;;;28.10;40.70;;;;;;4930524;29;20284;-86
2022/08/11 12:30:41;;;;;;;;;;;28.20;38.60;;;;;;4917296;29;19921;-84
2022/08/11 12:33:07;;;;;;;;;;;28.10;39.80;;;;;;4934151;29;19917;-85
2022/08/11 12:35:34;;;;;;;;;;;28.20;39.20;;;;;;4931370;29;19923;-85
2022/08/11 12:38:01;;;;;;;;;;;28.20;37.80;;;;;;4917982;29;19954;-86
2022/08/11 12:46:02;;;;;;;;;;;28.10;38.70;;;;;;4948830;28;19914;-86
2022/08/11 12:54:21;;;;;;;;;;;28.30;37.90;;;;;;4933296;29;19918;-84
2022/08/11 13:05:05;;;;;;;;;;;28.50;39.10;;;;;;4928950;29;20347;-84
2022/08/11 13:07:34;;;;;;;;;;;28.70;37.70;;;;;;4916799;29;19941;-85
2022/08/11 13:10:01;;;;;;;;;;;28.70;36.30;;;;;;4913894;29;19915;-85
2022/08/11 13:12:46;;;;;;;;;;;28.60;37.10;;;;;;4927989;29;20335;-86
2022/08/11 13:15:23;;;;;;;;;;;28.50;38.20;;;;;;4899468;29;19969;-87
2022/08/11 13:17:50;;;;;;;;;;;28.50;37.20;;;;;;4917170;29;19910;-86
2022/08/11 13:20:18;;;;;;;;;;;28.40;37.40;;;;;;4914606;29;20223;-84
2022/08/11 13:22:46;;;;;;;;;;;28.40;37.10;;;;;;4913031;29;20293;-85
2022/08/11 13:25:14;;;;;;;;;;;28.40;37.40;;;;;;4913711;29;20001;-86
2022/08/11 13:27:41;;;;;;;;;;;28.40;37.10;;;;;;4929641;29;19994;-85
2022/08/11 13:32:51;;;;;;;;;;;28.50;36.90;;;;;;4920911;29;19911;-86
2022/08/11 13:35:17;;;;;;;;;;;28.50;37.10;;;;;;4939397;28;20021;-84
2022/08/11 13:37:44;;;;;;;;;;;28.50;35.20;;;;;;4932878;29;19918;-86
2022/08/11 13:40:10;;;;;;;;;;;28.30;35.20;;;;;;4930325;29;19915;-85
2022/08/11 13:42:36;;;;;;;;;;;28.30;35.60;;;;;;4931493;29;19910;-85
2022/08/11 13:45:02;;;;;;;;;;;28.30;35.90;;;;;;4933253;29;19923;-86
2022/08/11 13:47:28;;;;;;;;;;;28.30;36.70;;;;;;4932042;29;20047;-85
2022/08/11 13:49:54;;;;;;;;;;;28.20;37.40;;;;;;4920034;29;19926;-86
2022/08/11 13:52:20;;;;;;;;;;;28.30;37.20;;;;;;4946079;28;19915;-86
2022/08/11 13:54:47;;;;;;;;;;;28.30;36.50;;;;;;4931424;29;19921;-85
2022/08/11 13:57:14;;;;;;;;;;;28.20;36.20;;;;;;4928777;29;19919;-86
2022/08/11 13:59:44;;;;;;;;;;;28.10;36.00;;;;;;4897424;29;19957;-85
2022/08/11 14:02:14;;;;;;;;;;;28.10;36.30;;;;;;4928178;29;20422;-85
2022/08/11 14:04:43;;;;;;;;;;;27.90;36.10;;;;;;4912889;29;19911;-85
2022/08/11 14:07:09;;;;;;;;;;;27.90;37.20;;;;;;4930299;29;20320;-85
2022/08/11 14:09:36;;;;;;;;;;;27.90;37.90;;;;;;4916319;29;19910;-85
2022/08/11 14:14:59;;;;;;;;;;;27.80;36.90;;;;;;4934666;28;19958;-84
2022/08/11 14:17:26;;;;;;;;;;;27.80;37.20;;;;;;4928666;29;19917;-85
2022/08/11 14:19:53;;;;;;;;;;;27.90;38.80;;;;;;4928920;29;19915;-86
2022/08/11 14:22:21;;;;;;;;;;;28.00;37.60;;;;;;4930913;29;20363;-84
2022/08/11 14:24:48;;;;;;;;;;;28.10;37.70;;;;;;4915468;29;19914;-85
2022/08/11 14:27:15;;;;;;;;;;;28.20;38.70;;;;;;4947878;28;20157;-84
2022/08/11 14:29:42;;;;;;;;;;;28.30;37.90;;;;;;4948593;28;19938;-85
2022/08/11 14:32:08;;;;;;;;;;;28.30;37.70;;;;;;4947542;28;19917;-84
2022/08/11 14:34:35;;;;;;;;;;;28.10;37.00;;;;;;4931472;29;19926;-84
2022/08/11 14:37:02;;;;;;;;;;;28.00;38.10;;;;;;4932210;29;19937;-84
2022/08/11 14:39:34;;;;;;;;;;;27.80;37.30;;;;;;4929051;29;20015;-83
2022/08/11 14:47:50;;;;;;;;;;;27.50;38.80;;;;;;4934196;29;20005;-85
2022/08/11 14:50:17;;;;;;;;;;;27.50;38.80;;;;;;4943322;29;20231;-84
2022/08/11 14:52:47;;;;;;;;;;;27.50;39.40;;;;;;4927599;29;20386;-84
2022/08/11 14:57:58;;;;;;;;;;;27.30;39.80;;;;;;4945910;29;20766;-84
2022/08/11 15:00:24;;;;;;;;;;;27.20;39.50;;;;;;4924987;29;20005;-84
2022/08/11 15:05:35;;;;;;;;;;;27.10;39.80;;;;;;4947694;28;19915;-86
2022/08/11 15:08:01;;;;;;;;;;;27.10;40.10;;;;;;4932182;29;20397;-85
2022/08/11 15:10:27;;;;;;;;;;;27.10;40.30;;;;;;4930895;29;19915;-86
2022/08/11 15:12:53;;;;;;;;;;;27.10;39.80;;;;;;4911036;29;19915;-85
2022/08/11 15:18:09;;;;;;;;;;;27.00;41.00;;;;;;4939997;29;20348;-82
2022/08/11 15:26:15;;;;;;;;;;;27.00;41.00;;;;;;4935148;28;19911;-85
2022/08/11 15:45:49;;;;;;;;;;;26.80;40.60;;;;;;4943338;28;19911;-84
2022/08/11 15:48:17;;;;;;;;;;;26.70;41.80;;;;;;4950514;28;19911;-83
2022/08/11 15:50:47;;;;;;;;;;;26.70;42.20;;;;;;4924950;29;19922;-84
2022/08/11 15:53:15;;;;;;;;;;;26.60;41.40;;;;;;4918145;29;19910;-85
2022/08/11 15:55:42;;;;;;;;;;;26.60;42.00;;;;;;4934407;29;20343;-84
2022/08/11 16:06:27;;;;;;;;;;;26.60;42.80;;;;;;4946685;28;19915;-85
2022/08/11 16:08:55;;;;;;;;;;;26.60;42.40;;;;;;4931205;29;19922;-84
2022/08/11 16:11:21;;;;;;;;;;;26.50;43.10;;;;;;4923936;29;20492;-83
2022/08/11 16:16:33;;;;;;;;;;;26.50;42.60;;;;;;4932800;29;20384;-85
2022/08/11 16:19:00;;;;;;;;;;;26.50;43.10;;;;;;4933649;29;20272;-85
2022/08/11 16:21:29;;;;;;;;;;;26.50;42.80;;;;;;4920113;29;20515;-84
2022/08/11 16:23:55;;;;;;;;;;;26.50;42.70;;;;;;4915162;29;20260;-85
2022/08/11 16:26:22;;;;;;;;;;;26.50;42.70;;;;;;4923411;29;19945;-84
2022/08/11 16:28:49;;;;;;;;;;;26.40;42.50;;;;;;4914701;29;19922;-83
2022/08/11 16:31:15;;;;;;;;;;;26.30;42.90;;;;;;4938124;29;19910;-85
2022/08/11 16:33:41;;;;;;;;;;;26.30;42.40;;;;;;4917581;29;20327;-85
2022/08/11 16:38:53;;;;;;;;;;;26.20;41.80;;;;;;4929057;29;19915;-83
2022/08/11 16:46:58;;;;;;;;;;;26.30;43.00;;;;;;4923898;29;19914;-85
2022/08/11 16:47:00;;;;;;;;;;;26.20;42.40;;;;;;4940795;29;19910;-85
2022/08/11 16:49:29;;;;;;;;;;;26.10;43.00;;;;;;4910652;29;19930;-85
2022/08/11 16:51:55;;;;;;;;;;;26.10;43.10;;;;;;4924392;29;19911;-84
2022/08/11 16:54:20;;;;;;;;;;;26.10;43.50;;;;;;4913368;29;20427;-83
2022/08/11 16:56:48;;;;;;;;;;;26.00;42.90;;;;;;4913640;29;20005;-85
2022/08/11 16:59:25;;;;;;;;;;;26.00;43.00;;;;;;4931195;29;19915;-84
2022/08/11 17:01:51;;;;;;;;;;;26.00;43.90;;;;;;4926353;29;19915;-84
2022/08/11 17:13:07;;;;;;;;;;;25.80;44.20;;;;;;4914376;29;19998;-85
2022/08/11 17:18:44;;;;;;;;;;;25.80;44.40;;;;;;4954868;28;19934;-84
2022/08/11 17:21:14;;;;;;;;;;;25.70;44.20;;;;;;4901825;29;19954;-86
2022/08/11 17:23:51;;;;;;;;;;;25.70;44.00;;;;;;4917510;29;19911;-85
2022/08/11 17:26:19;;;;;;;;;;;25.70;44.40;;;;;;4922902;29;19915;-84
2022/08/11 17:28:50;;;;;;;;;;;25.60;44.30;;;;;;4932357;29;19938;-84
2022/08/11 17:36:45;;;;;;;;;;;25.50;44.70;;;;;;4939090;29;19919;-83
2022/08/11 17:39:12;;;;;;;;;;;25.40;44.70;;;;;;4929162;29;19971;-84
2022/08/11 17:49:53;;;;;;;;;;;25.20;45.10;;;;;;4948078;28;19999;-85
2022/08/11 18:00:38;;;;;;;;;;;25.00;46.10;;;;;;4946294;29;19911;-84
2022/08/11 18:05:49;;;;;;;;;;;24.80;46.30;;;;;;4913993;29;19935;-84
